KSEG 152153Z AUTO 00000KT 10SM SCT110 26/15 A3011 RMK AO2 SLP193 T02560150